Time;durP1;ratioP1;P1;durP2;ratioP2;P2;SDS_P1;SDS_P2;PMS_P1;PMS_P2;Temp;Humidity;BMP_temperature;BMP_pressure;BME280_temperature;BME280_humidity;BME280_pressure;Samples;Min_cycle;Max_cycle;Signal;HPM_P1;HPM_P2
2023/09/25 10:14:43;;;;;;;2.05;0.98;;;20.50;99.90;;;;;;5110408;27;20481;-76
2023/09/25 10:17:10;;;;;;;2.20;0.70;;;20.60;99.90;;;;;;5110952;28;20206;-76
2023/09/25 10:19:48;;;;;;;1.67;0.77;;;20.80;99.90;;;;;;5110689;28;20201;-73
2023/09/25 10:22:20;;;;;;;1.50;0.68;;;21.00;99.90;;;;;;5110576;28;20202;-74
2023/09/25 10:24:48;;;;;;;1.70;0.70;;;21.10;99.90;;;;;;5110531;28;20230;-74
2023/09/25 10:27:17;;;;;;;0.70;0.52;;;21.40;99.90;;;;;;5110890;28;20198;-74
2023/09/25 10:30:05;;;;;;;1.88;0.68;;;21.40;99.90;;;;;;5110524;28;20554;-74
2023/09/25 10:32:33;;;;;;;0.90;0.60;;;21.50;99.90;;;;;;5110097;28;20679;-74
2023/09/25 10:35:33;;;;;;;2.25;0.73;;;21.50;99.90;;;;;;5110608;28;20253;-74
2023/09/25 10:38:09;;;;;;;1.58;0.75;;;21.30;99.90;;;;;;5110619;28;20671;-75
2023/09/25 10:40:37;;;;;;;1.38;0.60;;;21.20;99.90;;;;;;5110450;28;20248;-75
2023/09/25 10:43:04;;;;;;;1.77;0.77;;;21.30;99.90;;;;;;5110498;28;20202;-75
2023/09/25 10:45:34;;;;;;;0.80;0.50;;;21.40;99.90;;;;;;5110218;28;20253;-75
2023/09/25 10:48:01;;;;;;;1.17;0.65;;;21.50;99.90;;;;;;5110032;28;20206;-74
2023/09/25 10:50:28;;;;;;;2.22;0.60;;;21.50;99.90;;;;;;5110032;28;20263;-75
2023/09/25 10:52:56;;;;;;;1.98;0.90;;;21.40;99.90;;;;;;5110196;28;20236;-75
2023/09/25 10:55:22;;;;;;;2.50;0.70;;;21.50;99.90;;;;;;5110043;28;20222;-75
2023/09/25 10:57:50;;;;;;;2.53;0.50;;;21.60;99.90;;;;;;5109810;28;20293;-75
2023/09/25 11:00:19;;;;;;;2.15;0.70;;;21.70;99.90;;;;;;5109698;28;20289;-75
2023/09/25 11:02:48;;;;;;;1.77;0.77;;;21.80;99.90;;;;;;5109949;28;20251;-74
2023/09/25 11:05:15;;;;;;;1.75;0.70;;;21.80;99.90;;;;;;5108555;28;20229;-75
2023/09/25 11:07:42;;;;;;;1.63;0.75;;;21.80;99.90;;;;;;5109957;28;20208;-75
2023/09/25 11:10:10;;;;;;;0.73;0.50;;;21.70;99.90;;;;;;5109466;28;20259;-75
2023/09/25 11:12:38;;;;;;;2.22;0.88;;;21.70;99.90;;;;;;5109731;28;20213;-75
2023/09/25 11:15:11;;;;;;;1.60;0.60;;;21.70;99.90;;;;;;5109327;28;20257;-75
2023/09/25 11:17:38;;;;;;;1.00;0.63;;;21.80;99.90;;;;;;5109355;28;20205;-75
2023/09/25 11:20:12;;;;;;;1.33;0.60;;;22.00;99.90;;;;;;5109716;28;20201;-75
2023/09/25 11:22:39;;;;;;;1.05;0.50;;;22.10;99.90;;;;;;5109308;28;20220;-75
2023/09/25 11:25:12;;;;;;;1.17;0.60;;;22.00;99.90;;;;;;5100705;28;20227;-75
2023/09/25 11:27:39;;;;;;;1.60;0.70;;;22.00;99.90;;;;;;5096032;28;20209;-74
2023/09/25 11:30:11;;;;;;;0.90;0.50;;;22.10;99.90;;;;;;5095808;28;20232;-75
2023/09/25 11:32:39;;;;;;;2.28;0.50;;;22.30;99.90;;;;;;5095515;28;20668;-74
2023/09/25 11:35:12;;;;;;;1.40;0.70;;;22.30;99.90;;;;;;5095150;28;20775;-75
2023/09/25 11:37:53;;;;;;;3.47;0.77;;;22.20;99.90;;;;;;5095438;28;20202;-75
2023/09/25 11:40:20;;;;;;;0.75;0.50;;;22.30;99.90;;;;;;5095272;28;20233;-74
2023/09/25 11:42:47;;;;;;;1.40;0.63;;;22.40;99.90;;;;;;5095380;28;20289;-74
2023/09/25 11:45:15;;;;;;;1.30;0.73;;;22.50;99.90;;;;;;5095151;28;20268;-73
2023/09/25 11:47:43;;;;;;;2.63;0.70;;;22.50;99.90;;;;;;5095151;28;20649;-74
2023/09/25 11:50:13;;;;;;;3.13;0.93;;;22.60;99.90;;;;;;5095114;28;20325;-74
2023/09/25 11:52:41;;;;;;;0.70;0.50;;;22.60;99.90;;;;;;5095046;28;20560;-74
2023/09/25 11:55:09;;;;;;;1.65;0.80;;;22.50;99.90;;;;;;5095221;28;20227;-74
2023/09/25 11:57:37;;;;;;;1.10;0.70;;;22.50;99.90;;;;;;5095313;28;20298;-74
2023/09/25 12:00:05;;;;;;;1.55;0.85;;;22.30;99.90;;;;;;5095274;28;20198;-75
2023/09/25 12:02:32;;;;;;;3.00;0.60;;;22.30;99.90;;;;;;5095542;28;20207;-74
2023/09/25 12:04:59;;;;;;;0.95;0.50;;;22.50;99.90;;;;;;5095212;28;20261;-74
2023/09/25 12:07:30;;;;;;;1.35;0.70;;;22.50;99.90;;;;;;5095246;28;20616;-74
2023/09/25 12:09:57;;;;;;;1.42;0.90;;;22.40;99.90;;;;;;5095045;28;20676;-74
2023/09/25 12:12:25;;;;;;;0.93;0.60;;;22.60;99.90;;;;;;5095034;28;20293;-74
2023/09/25 12:14:53;;;;;;;3.30;0.70;;;22.60;99.90;;;;;;5095333;28;20237;-75
2023/09/25 12:17:20;;;;;;;1.80;0.80;;;22.70;99.90;;;;;;5094831;28;20211;-75
2023/09/25 12:19:47;;;;;;;2.38;0.80;;;22.60;99.90;;;;;;5094766;28;20234;-75
2023/09/25 12:22:14;;;;;;;1.48;0.90;;;22.70;99.90;;;;;;5094826;28;20756;-75
2023/09/25 12:27:04;;;;;;;2.50;1.10;;;22.90;99.90;;;;;;5110922;27;20555;-74
2023/09/25 12:29:31;;;;;;;1.13;0.70;;;22.80;99.90;;;;;;5110918;28;20635;-74
2023/09/25 12:31:58;;;;;;;2.78;0.70;;;22.90;99.90;;;;;;5110930;28;20233;-74
2023/09/25 12:34:25;;;;;;;1.85;1.00;;;23.00;99.90;;;;;;5110302;28;20248;-74
2023/09/25 12:36:52;;;;;;;1.40;0.90;;;23.00;99.90;;;;;;5110502;28;20253;-74
2023/09/25 12:39:20;;;;;;;1.73;1.13;;;22.90;99.90;;;;;;5110520;28;20201;-73
2023/09/25 12:41:47;;;;;;;4.45;1.70;;;23.00;99.90;;;;;;5110296;28;20237;-73
2023/09/25 12:44:15;;;;;;;2.97;1.00;;;23.10;99.90;;;;;;5110460;28;20266;-72
2023/09/25 12:46:42;;;;;;;3.50;0.98;;;23.10;99.90;;;;;;5110461;28;20318;-74
2023/09/25 12:49:09;;;;;;;2.38;1.00;;;22.90;99.90;;;;;;5110702;28;20252;-75
2023/09/25 12:51:36;;;;;;;2.08;0.90;;;23.00;99.90;;;;;;5110381;28;20680;-74
2023/09/25 12:54:03;;;;;;;1.73;0.85;;;23.00;99.90;;;;;;5110363;28;20230;-74
2023/09/25 12:56:30;;;;;;;1.40;0.70;;;23.10;99.90;;;;;;5110561;28;20221;-74
2023/09/25 12:58:57;;;;;;;2.42;1.05;;;23.20;99.90;;;;;;5110514;28;20626;-74
2023/09/25 13:01:25;;;;;;;1.25;0.60;;;23.00;99.90;;;;;;5110342;28;20230;-74
2023/09/25 13:03:52;;;;;;;1.63;0.80;;;22.90;99.90;;;;;;5110243;28;20213;-74
2023/09/25 13:06:19;;;;;;;1.60;1.08;;;23.00;99.90;;;;;;5109802;28;20324;-74
2023/09/25 13:08:46;;;;;;;2.65;0.90;;;23.00;99.90;;;;;;5109847;28;20296;-74
2023/09/25 13:11:13;;;;;;;2.13;0.90;;;23.10;99.90;;;;;;5109989;28;20289;-74
2023/09/25 13:13:39;;;;;;;2.13;0.90;;;23.20;99.90;;;;;;5109908;28;20237;-74
2023/09/25 13:16:06;;;;;;;1.30;0.70;;;23.00;99.90;;;;;;5109938;28;20304;-75
2023/09/25 13:18:35;;;;;;;2.08;0.90;;;22.90;99.90;;;;;;5109843;28;20241;-74
2023/09/25 13:21:02;;;;;;;1.60;0.82;;;22.80;99.90;;;;;;5110329;28;20244;-74
2023/09/25 13:23:30;;;;;;;2.00;0.82;;;22.70;99.90;;;;;;5109704;28;20233;-74
2023/09/25 13:25:57;;;;;;;2.38;0.85;;;22.70;99.90;;;;;;5107255;28;20226;-75
2023/09/25 13:28:24;;;;;;;2.22;0.80;;;22.80;99.90;;;;;;5102783;28;20226;-76
2023/09/25 13:30:51;;;;;;;5.90;1.67;;;22.80;99.90;;;;;;5109202;28;20229;-71
2023/09/25 13:33:18;;;;;;;3.05;0.88;;;22.70;99.90;;;;;;5109414;28;20221;-72
2023/09/25 13:35:46;;;;;;;1.05;0.80;;;22.70;99.90;;;;;;5109495;28;20265;-72
2023/09/25 13:38:13;;;;;;;2.17;0.90;;;22.70;99.90;;;;;;5076381;28;20620;-72
2023/09/25 13:40:40;;;;;;;2.20;0.70;;;22.70;99.90;;;;;;5075594;28;20235;-71
2023/09/25 13:43:07;;;;;;;3.47;2.03;;;22.90;99.90;;;;;;5095606;28;20234;-70
2023/09/25 13:45:34;;;;;;;5.13;2.42;;;22.90;99.90;;;;;;5095346;28;20266;-71
2023/09/25 13:48:01;;;;;;;3.50;1.00;;;23.10;99.90;;;;;;5094928;28;20206;-71
2023/09/25 13:50:28;;;;;;;6.07;1.40;;;23.30;99.90;;;;;;5095309;28;20237;-71
2023/09/25 13:52:56;;;;;;;1.70;0.93;;;23.30;99.90;;;;;;5095460;28;20199;-71
2023/09/25 13:55:23;;;;;;;1.60;0.82;;;23.50;99.90;;;;;;5095526;28;20283;-71
2023/09/25 13:57:50;;;;;;;1.65;0.93;;;23.60;99.90;;;;;;5094525;28;20260;-71
2023/09/25 14:00:17;;;;;;;1.80;0.98;;;23.50;99.90;;;;;;5095258;28;20267;-76
2023/09/25 14:02:44;;;;;;;2.17;0.90;;;23.50;99.90;;;;;;5095023;28;20303;-72
2023/09/25 14:05:12;;;;;;;4.53;0.90;;;23.30;99.90;;;;;;5095347;28;20635;-72
2023/09/25 14:07:39;;;;;;;1.98;1.00;;;23.40;99.90;;;;;;5079083;28;20219;-73
2023/09/25 14:10:08;;;;;;;2.63;1.25;;;23.40;99.90;;;;;;5077482;28;20621;-73
2023/09/25 14:12:35;;;;;;;1.88;0.90;;;23.50;99.90;;;;;;5095288;28;20238;-73
2023/09/25 14:15:02;;;;;;;1.85;0.65;;;23.70;99.90;;;;;;5094888;28;20264;-72
2023/09/25 14:17:29;;;;;;;2.75;1.20;;;23.90;99.90;;;;;;5080804;28;20701;-71
2023/09/25 14:19:56;;;;;;;2.60;1.20;;;23.90;99.90;;;;;;5075444;28;20290;-71
2023/09/25 14:22:22;;;;;;;1.65;0.77;;;23.80;99.90;;;;;;5094903;28;20732;-71
2023/09/25 14:24:49;;;;;;;0.90;0.70;;;23.80;99.90;;;;;;5076863;28;20769;-72
2023/09/25 14:27:17;;;;;;;1.05;0.73;;;24.00;99.90;;;;;;5081471;28;20289;-73
2023/09/25 14:29:44;;;;;;;1.80;1.10;;;24.10;99.90;;;;;;5074204;28;20294;-71
2023/09/25 14:32:11;;;;;;;1.17;0.68;;;24.20;99.90;;;;;;5093547;28;20668;-70
2023/09/25 14:34:38;;;;;;;3.05;0.88;;;24.30;99.90;;;;;;5094968;28;20258;-73
2023/09/25 14:37:05;;;;;;;2.08;1.00;;;24.10;99.90;;;;;;5083603;28;20257;-72
2023/09/25 14:39:32;;;;;;;3.13;1.17;;;24.10;99.90;;;;;;5074192;28;20246;-76
2023/09/25 14:41:59;;;;;;;1.15;0.75;;;23.70;99.90;;;;;;5090790;28;20242;-77
2023/09/25 14:44:28;;;;;;;5.57;1.33;;;23.60;99.90;;;;;;5094510;28;20539;-71
2023/09/25 14:46:55;;;;;;;1.75;0.90;;;23.50;99.90;;;;;;5085057;28;20269;-74
2023/09/25 14:49:22;;;;;;;2.60;1.40;;;23.60;99.90;;;;;;5073127;28;20707;-72
2023/09/25 14:51:51;;;;;;;1.35;1.25;;;23.60;99.90;;;;;;5075536;28;20210;-73
2023/09/25 14:54:18;;;;;;;2.10;0.85;;;23.70;99.90;;;;;;5073722;28;20631;-72
2023/09/25 14:56:45;;;;;;;3.20;1.10;;;23.90;99.90;;;;;;5079556;28;20282;-73
2023/09/25 14:59:12;;;;;;;1.33;0.85;;;23.90;99.90;;;;;;5074173;28;20239;-74
2023/09/25 15:01:40;;;;;;;2.05;1.05;;;23.90;99.90;;;;;;5086971;28;20691;-72
2023/09/25 15:04:07;;;;;;;1.13;0.77;;;23.80;99.90;;;;;;5094057;28;20202;-72
2023/09/25 15:06:35;;;;;;;2.85;1.23;;;23.80;99.90;;;;;;5086940;28;20254;-74
2023/09/25 15:09:01;;;;;;;5.18;1.30;;;23.90;99.90;;;;;;5073780;28;20203;-74
2023/09/25 15:11:28;;;;;;;2.83;1.20;;;23.90;99.90;;;;;;5084345;28;20573;-73
2023/09/25 15:13:57;;;;;;;2.58;1.30;;;23.90;99.90;;;;;;5093694;28;20289;-72
2023/09/25 15:16:24;;;;;;;2.90;1.70;;;24.00;99.90;;;;;;5088195;28;20226;-73
2023/09/25 15:18:52;;;;;;;2.13;1.20;;;23.80;99.90;;;;;;5091875;28;20235;-82
2023/09/25 15:21:19;;;;;;;6.10;2.92;;;23.90;99.90;;;;;;5092975;28;20289;-72
2023/09/25 15:23:46;;;;;;;3.38;1.90;;;24.00;99.90;;;;;;5093972;28;20257;-81
2023/09/25 15:26:13;;;;;;;1.50;0.90;;;24.00;99.90;;;;;;5093884;28;20266;-73
2023/09/25 15:28:40;;;;;;;3.10;1.10;;;24.00;99.90;;;;;;5093936;28;20238;-78
2023/09/25 15:31:07;;;;;;;2.03;1.13;;;24.10;99.90;;;;;;5095332;28;20233;-83
2023/09/25 15:33:34;;;;;;;2.47;1.27;;;24.00;99.90;;;;;;5094760;28;20237;-85
2023/09/25 15:36:02;;;;;;;2.45;0.93;;;24.00;99.90;;;;;;5094642;28;20268;-84
2023/09/25 15:38:29;;;;;;;1.38;0.95;;;24.00;99.90;;;;;;5094678;28;20241;-78
2023/09/25 15:40:56;;;;;;;1.52;1.00;;;24.00;99.90;;;;;;5094303;28;20661;-80
2023/09/25 15:43:23;;;;;;;3.25;1.00;;;24.10;99.90;;;;;;5094003;28;20629;-81
2023/09/25 15:45:50;;;;;;;3.80;1.30;;;24.00;99.90;;;;;;5093694;28;20645;-78
2023/09/25 15:48:16;;;;;;;2.25;1.15;;;24.10;99.90;;;;;;5094362;28;20234;-77
2023/09/25 15:50:43;;;;;;;3.53;1.13;;;24.00;99.90;;;;;;5093837;28;20242;-80
2023/09/25 15:53:11;;;;;;;1.58;0.98;;;24.10;99.90;;;;;;5093970;28;20557;-81
2023/09/25 15:55:39;;;;;;;3.15;1.23;;;24.10;99.90;;;;;;5094733;28;20253;-81
2023/09/25 15:58:09;;;;;;;2.80;1.15;;;24.00;99.90;;;;;;5094149;28;20245;-79
2023/09/25 16:00:36;;;;;;;2.85;1.55;;;24.10;99.90;;;;;;5093867;28;20209;-78
2023/09/25 16:03:03;;;;;;;3.53;1.45;;;24.10;99.90;;;;;;5094027;28;20699;-73
2023/09/25 16:05:30;;;;;;;2.03;0.95;;;24.20;99.90;;;;;;5093424;28;20739;-73
2023/09/25 16:07:57;;;;;;;1.77;1.00;;;24.20;99.90;;;;;;5093527;28;20666;-77
2023/09/25 16:10:25;;;;;;;1.80;1.00;;;24.20;99.90;;;;;;5094209;28;20593;-83
2023/09/25 16:12:52;;;;;;;1.63;1.00;;;24.10;99.90;;;;;;5094231;28;20238;-77
2023/09/25 16:15:19;;;;;;;3.95;1.30;;;24.00;99.90;;;;;;5094010;28;20248;-80
2023/09/25 16:17:46;;;;;;;1.63;0.90;;;24.00;99.90;;;;;;5093714;28;20244;-78
2023/09/25 16:20:13;;;;;;;2.00;0.95;;;23.80;99.90;;;;;;5093649;28;20238;-86
2023/09/25 16:22:40;;;;;;;1.65;0.90;;;23.60;99.90;;;;;;5093770;28;20237;-77
2023/09/25 16:25:07;;;;;;;3.05;1.00;;;23.60;99.90;;;;;;5093835;28;20265;-85
2023/09/25 16:27:36;;;;;;;1.02;0.80;;;23.60;99.90;;;;;;5093716;28;20317;-77
2023/09/25 16:30:04;;;;;;;1.48;1.00;;;23.70;99.90;;;;;;5093530;28;20285;-79
2023/09/25 16:32:31;;;;;;;1.77;0.85;;;23.60;99.90;;;;;;5096104;28;20572;-78
2023/09/25 16:34:58;;;;;;;1.38;0.80;;;23.50;99.90;;;;;;5094058;28;20314;-83
2023/09/25 16:37:25;;;;;;;1.52;0.82;;;23.50;99.90;;;;;;5094043;28;20237;-81
2023/09/25 16:39:53;;;;;;;1.67;0.90;;;23.40;99.90;;;;;;5093635;28;20202;-85
2023/09/25 16:42:20;;;;;;;2.60;1.20;;;23.50;99.90;;;;;;5093860;28;20237;-83
2023/09/25 16:44:48;;;;;;;2.25;1.10;;;23.50;99.90;;;;;;5093782;28;20374;-83
2023/09/25 16:47:15;;;;;;;2.60;1.40;;;23.40;99.90;;;;;;5093678;28;20266;-82
2023/09/25 16:49:43;;;;;;;2.60;1.30;;;23.40;99.90;;;;;;5093995;28;20225;-83
2023/09/25 16:52:10;;;;;;;4.18;1.30;;;23.30;99.90;;;;;;5094332;28;20285;-80
2023/09/25 16:54:36;;;;;;;2.63;1.30;;;23.20;99.90;;;;;;5093867;28;20305;-79
2023/09/25 16:57:03;;;;;;;1.77;1.15;;;23.10;99.90;;;;;;5094022;28;20245;-83
2023/09/25 16:59:31;;;;;;;1.65;1.13;;;23.00;99.90;;;;;;5094027;28;20695;-88
2023/09/25 17:01:59;;;;;;;1.70;0.98;;;22.90;99.90;;;;;;5094438;28;20206;-82
2023/09/25 17:04:26;;;;;;;2.08;0.80;;;22.70;99.90;;;;;;5084307;28;20306;-79
2023/09/25 17:06:53;;;;;;;3.08;1.20;;;22.50;99.90;;;;;;5080365;28;20237;-82
2023/09/25 17:09:20;;;;;;;2.25;0.95;;;22.40;99.90;;;;;;5090637;28;20238;-80
2023/09/25 17:11:47;;;;;;;4.00;0.90;;;22.20;99.90;;;;;;5092890;28;20242;-88
2023/09/25 17:14:14;;;;;;;2.13;0.90;;;22.10;99.90;;;;;;5097153;28;20680;-77
2023/09/25 17:16:40;;;;;;;1.95;1.10;;;21.90;99.90;;;;;;5097260;28;20624;-85
2023/09/25 17:19:09;;;;;;;3.53;1.55;;;21.80;99.90;;;;;;5097688;28;20234;-86
2023/09/25 17:21:35;;;;;;;3.05;1.60;;;21.80;99.90;;;;;;5096708;28;20241;-85
2023/09/25 17:24:03;;;;;;;3.22;1.60;;;21.60;99.90;;;;;;5096846;28;20241;-85
2023/09/25 17:26:30;;;;;;;5.70;2.13;;;21.30;99.90;;;;;;5098632;28;20696;-85
2023/09/25 17:28:57;;;;;;;4.82;2.10;;;21.20;99.90;;;;;;5097104;28;20206;-81
2023/09/25 17:31:25;;;;;;;3.78;1.60;;;21.00;99.90;;;;;;5098486;28;20293;-78
2023/09/25 17:33:51;;;;;;;3.58;1.42;;;20.90;99.90;;;;;;5098480;28;20245;-82
2023/09/25 17:36:20;;;;;;;2.47;1.00;;;20.80;99.90;;;;;;5096979;28;20305;-84
2023/09/25 17:38:47;;;;;;;2.35;1.35;;;20.60;99.90;;;;;;5097566;28;20237;-81
2023/09/25 17:41:14;;;;;;;4.05;1.38;;;20.50;99.90;;;;;;5097968;28;20242;-74
2023/09/25 17:43:41;;;;;;;3.83;1.73;;;20.30;99.90;;;;;;5096628;28;20293;-83
2023/09/25 17:46:08;;;;;;;3.75;1.85;;;20.20;99.90;;;;;;5097038;28;20923;-81
2023/09/25 17:48:35;;;;;;;2.85;1.13;;;20.10;99.90;;;;;;5096793;28;20237;-82
2023/09/25 17:51:02;;;;;;;3.08;1.40;;;20.00;99.90;;;;;;5096630;28;20234;-78
2023/09/25 17:53:30;;;;;;;4.75;1.17;;;19.80;99.90;;;;;;5097277;28;20266;-77
2023/09/25 17:55:57;;;;;;;5.38;1.30;;;19.70;99.90;;;;;;5095692;28;20257;-74
2023/09/25 17:58:24;;;;;;;4.47;1.50;;;19.70;99.90;;;;;;5096235;28;20625;-73
2023/09/25 18:00:51;;;;;;;5.97;1.42;;;19.60;99.90;;;;;;5096356;28;20241;-77
2023/09/25 18:03:18;;;;;;;7.90;2.60;;;19.40;99.90;;;;;;5096693;28;20241;-84
2023/09/25 18:05:45;;;;;;;5.15;2.20;;;19.30;99.90;;;;;;5095940;28;20588;-74
2023/09/25 18:08:12;;;;;;;4.40;2.15;;;19.20;99.90;;;;;;5098064;28;20249;-86
2023/09/25 18:10:40;;;;;;;2.03;1.20;;;19.10;99.90;;;;;;5102725;28;20199;-76
2023/09/25 18:13:07;;;;;;;2.63;1.20;;;19.00;99.90;;;;;;5099868;28;20234;-87
2023/09/25 18:15:34;;;;;;;2.13;1.05;;;19.00;99.90;;;;;;5101902;28;20233;-80
2023/09/25 18:18:01;;;;;;;1.48;0.98;;;18.90;99.90;;;;;;5100565;28;20241;-87
2023/09/25 18:20:28;;;;;;;2.92;1.20;;;18.90;99.90;;;;;;5096777;28;20202;-87
2023/09/25 18:22:55;;;;;;;2.03;1.15;;;18.80;99.90;;;;;;5095864;28;20652;-86
2023/09/25 18:25:22;;;;;;;2.53;1.02;;;18.70;99.90;;;;;;5095902;28;20268;-79
2023/09/25 18:27:50;;;;;;;1.90;1.10;;;18.60;99.90;;;;;;5095657;28;20661;-87
2023/09/25 18:30:17;;;;;;;3.15;1.15;;;18.50;99.90;;;;;;5096608;28;20245;-84
2023/09/25 18:32:44;;;;;;;2.80;1.20;;;18.40;99.90;;;;;;5096440;28;20249;-82
2023/09/25 18:35:11;;;;;;;1.98;1.00;;;18.30;99.90;;;;;;5096081;28;20724;-77
2023/09/25 18:37:38;;;;;;;2.38;1.00;;;18.20;99.90;;;;;;5096319;28;20249;-85
2023/09/25 18:40:06;;;;;;;2.70;1.30;;;18.20;99.90;;;;;;5095178;28;20230;-84
2023/09/25 18:42:34;;;;;;;3.00;1.60;;;18.20;99.90;;;;;;5095166;28;20238;-85
2023/09/25 18:45:03;;;;;;;4.47;1.50;;;18.00;99.90;;;;;;5096165;28;20600;-82
2023/09/25 18:47:30;;;;;;;5.80;1.77;;;18.00;99.90;;;;;;5095011;28;20227;-84
2023/09/25 18:49:57;;;;;;;3.08;1.70;;;17.90;99.90;;;;;;5095126;28;20289;-87
2023/09/25 18:52:24;;;;;;;4.35;1.98;;;17.90;99.90;;;;;;5095228;28;20202;-74
2023/09/25 18:54:50;;;;;;;3.95;2.38;;;17.90;99.90;;;;;;5095052;28;20254;-73
2023/09/25 18:57:18;;;;;;;4.22;2.35;;;17.80;99.90;;;;;;5095138;28;20241;-87
2023/09/25 18:59:45;;;;;;;4.68;2.38;;;17.80;99.90;;;;;;5095322;28;20217;-77
2023/09/25 19:02:14;;;;;;;7.00;2.50;;;17.70;99.90;;;;;;5095167;28;20234;-78
2023/09/25 19:04:41;;;;;;;3.28;2.13;;;17.60;99.90;;;;;;5107837;28;20229;-80
2023/09/25 19:07:08;;;;;;;2.90;1.70;;;17.60;99.90;;;;;;5118494;28;20214;-77
2023/09/25 19:09:35;;;;;;;6.57;2.20;;;17.60;99.90;;;;;;5118718;28;20210;-72
2023/09/25 19:12:02;;;;;;;3.90;2.42;;;17.50;99.90;;;;;;5117876;28;20187;-75
2023/09/25 19:14:29;;;;;;;3.30;2.10;;;17.30;99.90;;;;;;5116492;28;20206;-74
2023/09/25 19:16:56;;;;;;;6.70;2.50;;;17.30;99.90;;;;;;5104383;28;20705;-73
2023/09/25 19:19:24;;;;;;;3.00;1.85;;;17.20;99.90;;;;;;5103329;28;20224;-72
2023/09/25 19:21:51;;;;;;;4.47;1.90;;;17.10;99.90;;;;;;5101761;28;20218;-72
2023/09/25 19:24:18;;;;;;;2.70;1.88;;;17.10;99.90;;;;;;5100539;28;20222;-72
2023/09/25 19:26:45;;;;;;;4.87;2.47;;;17.10;99.90;;;;;;5099647;28;20218;-75
2023/09/25 19:29:12;;;;;;;5.13;2.40;;;17.10;99.90;;;;;;5094403;28;20230;-74
2023/09/25 19:31:39;;;;;;;4.17;2.63;;;17.00;99.90;;;;;;5095192;28;20226;-75
2023/09/25 19:34:06;;;;;;;4.97;2.37;;;16.90;99.90;;;;;;5094424;28;20293;-80
2023/09/25 19:36:35;;;;;;;6.90;3.60;;;16.80;99.90;;;;;;5094186;28;20305;-80
2023/09/25 19:39:02;;;;;;;8.80;4.57;;;16.80;99.90;;;;;;5094590;28;20213;-77
2023/09/25 19:41:29;;;;;;;10.00;5.40;;;16.80;99.90;;;;;;5094063;28;20293;-79
2023/09/25 19:43:56;;;;;;;6.28;3.55;;;16.80;99.90;;;;;;5094515;28;20245;-74
2023/09/25 19:46:23;;;;;;;8.13;4.10;;;16.80;99.90;;;;;;5094441;28;20310;-74
2023/09/25 19:48:50;;;;;;;9.87;4.90;;;16.80;99.90;;;;;;5093963;28;20303;-76
2023/09/25 19:51:17;;;;;;;11.10;4.77;;;16.80;99.90;;;;;;5094204;28;20234;-74
2023/09/25 19:53:45;;;;;;;8.97;4.77;;;16.70;99.90;;;;;;5093917;28;20210;-75
2023/09/25 19:56:12;;;;;;;9.20;4.40;;;16.70;99.90;;;;;;5094317;28;20229;-74
2023/09/25 19:58:39;;;;;;;11.73;5.83;;;16.70;99.90;;;;;;5094043;28;20234;-74
2023/09/25 20:01:11;;;;;;;13.40;5.90;;;16.70;99.90;;;;;;5093997;28;20237;-75
2023/09/25 20:03:38;;;;;;;11.60;6.43;;;16.60;99.90;;;;;;5094089;28;20210;-73
2023/09/25 20:06:05;;;;;;;11.20;5.57;;;16.50;99.90;;;;;;5093982;28;20317;-77
2023/09/25 20:08:32;;;;;;;14.53;7.70;;;16.50;99.90;;;;;;5094226;28;20321;-74
2023/09/25 20:11:00;;;;;;;16.37;7.40;;;16.40;99.90;;;;;;5093585;28;20242;-88
2023/09/25 20:13:27;;;;;;;14.90;7.17;;;16.40;99.90;;;;;;5093415;28;20267;-79
2023/09/25 20:15:54;;;;;;;19.73;8.37;;;16.40;99.90;;;;;;5093466;28;20254;-76
2023/09/25 20:18:22;;;;;;;21.47;9.87;;;16.40;99.90;;;;;;5093797;28;20297;-76
2023/09/25 20:20:53;;;;;;;19.77;10.37;;;16.30;99.90;;;;;;5094315;28;20255;-78
2023/09/25 20:23:21;;;;;;;20.70;10.50;;;16.30;99.90;;;;;;5093662;28;20238;-72
2023/09/25 20:25:48;;;;;;;20.70;10.70;;;16.20;99.90;;;;;;5093476;28;20266;-77
2023/09/25 20:28:16;;;;;;;18.97;9.60;;;16.20;99.90;;;;;;5093415;28;20661;-82
2023/09/25 20:30:44;;;;;;;20.00;10.67;;;16.30;99.90;;;;;;5093499;28;20596;-80
2023/09/25 20:33:11;;;;;;;17.70;8.83;;;16.20;99.90;;;;;;5093679;28;20298;-75
2023/09/25 20:35:38;;;;;;;15.07;8.10;;;16.20;99.90;;;;;;5096686;28;20218;-73
2023/09/25 20:38:05;;;;;;;15.53;7.90;;;16.10;99.90;;;;;;5094161;28;20285;-82
2023/09/25 20:40:32;;;;;;;22.13;8.50;;;16.00;99.90;;;;;;5095652;28;20234;-77
2023/09/25 20:42:59;;;;;;;17.33;8.30;;;16.00;99.90;;;;;;5098543;28;20238;-73
2023/09/25 20:45:28;;;;;;;16.47;7.00;;;16.00;99.90;;;;;;5097804;28;20272;-73
2023/09/25 20:47:57;;;;;;;12.33;6.93;;;16.00;99.90;;;;;;5099398;28;20261;-81
2023/09/25 20:50:26;;;;;;;12.53;6.20;;;16.00;99.90;;;;;;5099107;28;20214;-79
2023/09/25 20:52:53;;;;;;;10.97;6.17;;;15.90;99.90;;;;;;5100143;28;20210;-82
2023/09/25 20:55:21;;;;;;;9.80;5.27;;;15.90;99.90;;;;;;5099925;28;20226;-77
2023/09/25 20:57:48;;;;;;;10.10;5.03;;;15.90;99.90;;;;;;5099728;28;20669;-74
2023/09/25 21:00:15;;;;;;;8.57;4.77;;;15.90;99.90;;;;;;5098889;28;20668;-75
2023/09/25 21:02:44;;;;;;;6.67;3.77;;;15.80;99.90;;;;;;5097537;28;20209;-84
2023/09/25 21:05:12;;;;;;;4.30;2.33;;;15.70;99.90;;;;;;5097466;28;20589;-84
2023/09/25 21:07:38;;;;;;;3.60;1.67;;;15.70;99.90;;;;;;5097710;28;20256;-86
2023/09/25 21:10:07;;;;;;;3.40;1.90;;;15.70;99.90;;;;;;5096856;28;20237;-77
2023/09/25 21:12:34;;;;;;;7.70;1.70;;;15.70;99.90;;;;;;5097254;28;20498;-72
2023/09/25 21:15:01;;;;;;;3.17;1.90;;;15.60;99.90;;;;;;5105880;28;20234;-81
2023/09/25 21:17:28;;;;;;;5.57;2.07;;;15.70;99.90;;;;;;5106083;28;20206;-79
2023/09/25 21:19:56;;;;;;;3.73;2.03;;;15.60;99.90;;;;;;5107317;28;20226;-73
2023/09/25 21:22:23;;;;;;;4.70;2.20;;;15.60;99.90;;;;;;5107016;28;20561;-74
2023/09/25 21:24:50;;;;;;;6.10;3.03;;;15.50;99.90;;;;;;5090477;28;20261;-75
2023/09/25 21:27:18;;;;;;;4.27;2.23;;;15.40;99.90;;;;;;5089759;28;20289;-76
2023/09/25 21:29:45;;;;;;;4.03;2.30;;;15.40;99.90;;;;;;5096284;28;20226;-74
2023/09/25 21:32:13;;;;;;;4.53;2.50;;;15.30;99.90;;;;;;5095827;28;20695;-75
2023/09/25 21:34:40;;;;;;;4.83;2.43;;;15.20;99.90;;;;;;5086667;28;20302;-73
